Time;durP1;ratioP1;P1;durP2;ratioP2;P2;SDS_P1;SDS_P2;PMS_P1;PMS_P2;Temp;Humidity;BMP_temperature;BMP_pressure;BME280_temperature;BME280_humidity;BME280_pressure;Samples;Min_cycle;Max_cycle;Signal;HPM_P1;HPM_P2
2022/12/21 00:01:56;;;;;;;8.30;2.70;;;;;;;;;;4979915;28;93679;-60
2022/12/21 00:04:22;;;;;;;5.63;2.47;;;;;;;;;;4981583;28;92304;-59
2022/12/21 00:06:49;;;;;;;5.00;2.42;;;;;;;;;;4979504;28;94753;-59
2022/12/21 00:09:15;;;;;;;5.07;2.30;;;;;;;;;;4981559;28;92916;-58
2022/12/21 00:11:42;;;;;;;4.72;2.28;;;;;;;;;;4982025;28;92620;-60
2022/12/21 00:14:08;;;;;;;5.60;2.40;;;;;;;;;;4981246;28;92369;-64
2022/12/21 00:16:36;;;;;;;5.00;2.20;;;;;;;;;;4981122;28;94071;-60
2022/12/21 00:19:03;;;;;;;25.13;12.32;;;;;;;;;;4981253;28;92587;-62
2022/12/21 00:21:30;;;;;;;23.45;12.43;;;;;;;;;;4976786;28;92478;-62
2022/12/21 00:24:00;;;;;;;;;;;;;;;;;;4978521;28;91747;-60
2022/12/21 00:26:27;;;;;;;25.90;12.68;;;;;;;;;;4987214;28;121420;-61
2022/12/21 00:28:55;;;;;;;25.38;12.70;;;;;;;;;;4978627;28;95184;-60
2022/12/21 00:31:28;;;;;;;27.83;12.13;;;;;;;;;;4981097;28;94470;-60
2022/12/21 00:33:55;;;;;;;;;;;;;;;;;;4984272;28;94611;-59
2022/12/21 00:36:23;;;;;;;26.67;12.65;;;;;;;;;;4984689;28;122075;-60
2022/12/21 00:38:49;;;;;;;26.92;12.85;;;;;;;;;;4982309;28;92444;-60
2022/12/21 00:41:17;;;;;;;26.17;12.70;;;;;;;;;;4982388;28;92625;-61
2022/12/21 00:43:44;;;;;;;27.48;12.48;;;;;;;;;;4985993;28;92607;-62
2022/12/21 00:46:15;;;;;;;25.63;12.07;;;;;;;;;;4982121;28;92380;-62
2022/12/21 00:48:42;;;;;;;28.50;12.13;;;;;;;;;;4983694;28;91435;-60
2022/12/21 00:51:11;;;;;;;30.65;13.57;;;;;;;;;;4983125;28;92145;-67
2022/12/21 00:53:38;;;;;;;27.70;11.88;;;;;;;;;;4983490;28;93017;-65
2022/12/21 00:56:05;;;;;;;27.60;12.82;;;;;;;;;;4980428;28;96867;-73
2022/12/21 00:58:32;;;;;;;31.85;13.50;;;;;;;;;;4983108;28;92482;-60
2022/12/21 01:01:00;;;;;;;25.17;11.55;;;;;;;;;;4981553;28;92593;-61
2022/12/21 01:03:27;;;;;;;32.25;14.52;;;;;;;;;;4983159;28;92944;-60
2022/12/21 01:05:54;;;;;;;31.35;13.05;;;;;;;;;;4985589;28;92855;-60
2022/12/21 01:08:21;;;;;;;28.10;13.57;;;;;;;;;;4983605;28;92767;-60
2022/12/21 01:10:47;;;;;;;25.67;12.32;;;;;;;;;;4981621;28;92567;-60
2022/12/21 01:13:14;;;;;;;26.00;12.57;;;;;;;;;;4983883;28;92317;-60
2022/12/21 01:15:42;;;;;;;28.48;14.38;;;;;;;;;;4985556;28;92558;-60
2022/12/21 01:18:10;;;;;;;24.83;11.13;;;;;;;;;;4981796;28;93535;-60
2022/12/21 01:20:40;;;;;;;31.38;13.45;;;;;;;;;;4979644;28;94393;-59
2022/12/21 01:23:07;;;;;;;31.02;13.68;;;;;;;;;;4982740;28;92444;-60
2022/12/21 01:25:35;;;;;;;27.80;13.07;;;;;;;;;;4981650;28;92141;-60
2022/12/21 01:28:01;;;;;;;31.08;14.07;;;;;;;;;;4985827;28;92317;-62
2022/12/21 01:30:28;;;;;;;25.23;12.07;;;;;;;;;;4980965;28;92115;-61
2022/12/21 01:32:55;;;;;;;24.02;11.95;;;;;;;;;;4983085;28;92611;-59
2022/12/21 01:35:21;;;;;;;28.60;13.60;;;;;;;;;;4982268;28;92614;-60
2022/12/21 01:37:48;;;;;;;25.15;12.32;;;;;;;;;;4983267;28;91919;-62
2022/12/21 01:40:14;;;;;;;29.80;13.52;;;;;;;;;;4980978;28;92710;-61
2022/12/21 01:42:41;;;;;;;28.63;13.40;;;;;;;;;;4981695;28;92595;-62
2022/12/21 01:45:17;;;;;;;26.52;12.82;;;;;;;;;;4980694;28;94701;-61
2022/12/21 01:47:53;;;;;;;29.35;12.75;;;;;;;;;;4982593;28;95154;-61
2022/12/21 01:50:22;;;;;;;29.98;13.93;;;;;;;;;;4984949;28;92564;-61
2022/12/21 01:52:49;;;;;;;27.45;13.15;;;;;;;;;;4982519;28;92340;-59
2022/12/21 01:55:16;;;;;;;26.27;12.70;;;;;;;;;;4982091;28;92662;-61
2022/12/21 01:57:45;;;;;;;30.90;13.43;;;;;;;;;;4982109;28;92012;-60
2022/12/21 02:00:11;;;;;;;27.90;13.68;;;;;;;;;;4981970;28;92281;-59
2022/12/21 02:02:53;;;;;;;26.83;12.32;;;;;;;;;;4982680;28;91911;-62
2022/12/21 02:05:27;;;;;;;28.23;13.48;;;;;;;;;;4980546;28;92109;-62
2022/12/21 02:07:55;;;;;;;28.42;13.02;;;;;;;;;;4980769;28;94418;-62
2022/12/21 02:10:23;;;;;;;27.25;11.30;;;;;;;;;;4981650;28;96890;-61
2022/12/21 02:12:50;;;;;;;28.08;12.23;;;;;;;;;;4981884;28;94941;-62
2022/12/21 02:15:17;;;;;;;31.45;13.43;;;;;;;;;;4981714;28;92577;-62
2022/12/21 02:17:51;;;;;;;30.02;13.18;;;;;;;;;;4973976;28;92029;-61
2022/12/21 02:20:21;;;;;;;25.45;11.43;;;;;;;;;;4969096;28;92889;-62
2022/12/21 02:22:47;;;;;;;25.63;12.10;;;;;;;;;;4982098;28;92600;-60
2022/12/21 02:25:16;;;;;;;23.02;10.60;;;;;;;;;;4982372;28;92478;-60
2022/12/21 02:27:43;;;;;;;25.67;11.40;;;;;;;;;;4982580;28;92337;-62
2022/12/21 02:30:15;;;;;;;28.95;12.13;;;;;;;;;;4981651;28;92955;-62
2022/12/21 02:33:00;;;;;;;25.38;12.10;;;;;;;;;;4985058;28;92346;-62
2022/12/21 02:35:27;;;;;;;26.83;11.80;;;;;;;;;;4978335;28;95242;-60
2022/12/21 02:38:00;;;;;;;26.75;12.20;;;;;;;;;;4980400;28;92642;-62
2022/12/21 02:40:29;;;;;;;28.77;11.85;;;;;;;;;;4980533;28;94514;-61
2022/12/21 02:45:56;;;;;;;23.88;11.15;;;;;;;;;;4980648;28;93240;-62
2022/12/21 02:48:30;;;;;;;24.60;11.77;;;;;;;;;;4989405;28;92520;-62
2022/12/21 02:50:58;;;;;;;27.42;11.15;;;;;;;;;;4981198;28;92621;-62
2022/12/21 02:53:35;;;;;;;26.95;11.85;;;;;;;;;;4981014;28;91422;-61
2022/12/21 02:56:02;;;;;;;24.83;11.02;;;;;;;;;;4984524;28;92301;-62
2022/12/21 02:58:29;;;;;;;29.00;12.95;;;;;;;;;;4981304;28;92053;-62
2022/12/21 03:01:00;;;;;;;27.13;12.20;;;;;;;;;;4978382;28;95419;-61
2022/12/21 03:03:51;;;;;;;29.02;12.77;;;;;;;;;;4979660;28;92852;-63
2022/12/21 03:06:23;;;;;;;27.02;11.45;;;;;;;;;;4979378;28;92785;-60
2022/12/21 03:09:03;;;;;;;26.70;12.73;;;;;;;;;;4980110;28;94328;-60
2022/12/21 03:11:53;;;;;;;25.77;10.43;;;;;;;;;;4979697;28;93291;-63
2022/12/21 03:14:38;;;;;;;29.73;13.00;;;;;;;;;;4967003;28;93557;-60
2022/12/21 03:17:20;;;;;;;28.88;12.77;;;;;;;;;;4969794;28;92453;-60
2022/12/21 03:20:05;;;;;;;23.73;10.68;;;;;;;;;;4983594;28;92155;-60
2022/12/21 03:22:35;;;;;;;23.73;9.90;;;;;;;;;;4979944;28;92013;-60
2022/12/21 03:25:07;;;;;;;27.52;10.93;;;;;;;;;;4982280;28;92685;-60
2022/12/21 03:27:35;;;;;;;27.55;12.73;;;;;;;;;;4979771;28;94995;-60
2022/12/21 03:30:05;;;;;;;25.02;11.65;;;;;;;;;;4980716;28;94887;-62
2022/12/21 03:32:40;;;;;;;26.98;10.85;;;;;;;;;;4980221;28;92586;-60
2022/12/21 03:35:10;;;;;;;25.98;11.50;;;;;;;;;;4980843;28;92302;-60
2022/12/21 03:37:39;;;;;;;24.58;11.25;;;;;;;;;;4981000;28;92339;-60
2022/12/21 03:40:09;;;;;;;26.02;10.77;;;;;;;;;;4980785;28;92545;-60
2022/12/21 03:42:37;;;;;;;28.05;11.13;;;;;;;;;;4982540;28;92141;-60
2022/12/21 03:45:03;;;;;;;;;;;;;;;;;;4981808;28;91869;-62
2022/12/21 03:47:29;;;;;;;;;;;;;;;;;;4982133;28;120120;-62
2022/12/21 03:50:06;;;;;;;26.27;10.60;;;;;;;;;;4982533;28;121329;-61
2022/12/21 03:52:34;;;;;;;25.40;10.88;;;;;;;;;;4979653;28;95743;-60
2022/12/21 03:55:06;;;;;;;27.58;11.15;;;;;;;;;;4980710;28;92243;-60
2022/12/21 03:57:33;;;;;;;20.02;9.13;;;;;;;;;;4980659;28;92571;-61
2022/12/21 04:00:00;;;;;;;24.42;10.77;;;;;;;;;;4981036;28;93645;-61
2022/12/21 04:02:40;;;;;;;27.23;10.00;;;;;;;;;;4978005;28;92267;-60
2022/12/21 04:05:15;;;;;;;28.65;10.50;;;;;;;;;;4984863;28;92317;-60
2022/12/21 04:07:43;;;;;;;25.23;11.65;;;;;;;;;;4982759;28;92274;-61
2022/12/21 04:10:11;;;;;;;26.75;12.00;;;;;;;;;;4984020;28;92815;-62
2022/12/21 04:12:37;;;;;;;29.85;11.90;;;;;;;;;;4982866;28;92581;-59
2022/12/21 04:15:17;;;;;;;29.27;13.48;;;;;;;;;;4983902;28;93323;-62
2022/12/21 04:17:45;;;;;;;32.03;12.57;;;;;;;;;;4982311;28;94894;-59
2022/12/21 04:20:13;;;;;;;27.83;13.23;;;;;;;;;;4983626;28;93295;-62
2022/12/21 04:28:24;;;;;;;28.95;12.82;;;;;;;;;;4971531;28;92133;-59
2022/12/21 04:31:11;;;;;;;28.58;12.52;;;;;;;;;;4971438;28;93209;-60
2022/12/21 04:33:37;;;;;;;29.08;13.80;;;;;;;;;;4983612;28;93574;-60
2022/12/21 04:38:49;;;;;;;31.20;13.25;;;;;;;;;;4989167;28;92208;-60
2022/12/21 04:41:15;;;;;;;33.35;14.55;;;;;;;;;;4983365;28;93611;-61
2022/12/21 04:43:42;;;;;;;29.85;12.55;;;;;;;;;;4982061;28;95088;-61
2022/12/21 04:46:09;;;;;;;29.02;12.65;;;;;;;;;;4983055;28;94865;-60
2022/12/21 04:48:36;;;;;;;29.58;12.32;;;;;;;;;;4986276;28;93516;-61
2022/12/21 04:51:03;;;;;;;34.38;13.25;;;;;;;;;;4983289;28;92506;-61
2022/12/21 04:53:30;;;;;;;27.75;12.77;;;;;;;;;;4983153;28;93597;-61
2022/12/21 04:55:56;;;;;;;26.67;11.20;;;;;;;;;;4983316;28;92583;-60
2022/12/21 04:58:23;;;;;;;31.08;14.20;;;;;;;;;;4982933;28;93448;-61
2022/12/21 05:00:49;;;;;;;29.73;13.90;;;;;;;;;;4983441;28;92092;-61
2022/12/21 05:03:15;;;;;;;32.08;13.82;;;;;;;;;;4983223;28;92079;-61
2022/12/21 05:05:42;;;;;;;29.23;13.25;;;;;;;;;;4980611;28;92093;-60
2022/12/21 05:08:08;;;;;;;31.42;13.15;;;;;;;;;;4978434;28;95810;-62
2022/12/21 05:10:35;;;;;;;27.67;12.82;;;;;;;;;;4986008;28;92541;-62
2022/12/21 05:13:01;;;;;;;26.92;11.73;;;;;;;;;;4983280;28;92646;-60
2022/12/21 05:15:27;;;;;;;33.88;12.27;;;;;;;;;;4982696;28;92424;-61
2022/12/21 05:17:54;;;;;;;35.42;13.13;;;;;;;;;;4982000;28;92311;-61
2022/12/21 05:20:20;;;;;;;39.85;13.82;;;;;;;;;;4982434;28;92948;-60
2022/12/21 05:22:47;;;;;;;24.40;11.05;;;;;;;;;;4983021;28;92139;-59
2022/12/21 05:25:13;;;;;;;28.55;12.40;;;;;;;;;;4984310;28;92365;-62
2022/12/21 05:27:39;;;;;;;21.02;10.00;;;;;;;;;;4982648;28;92782;-61
2022/12/21 05:30:06;;;;;;;24.38;10.98;;;;;;;;;;4982590;28;92227;-62
2022/12/21 05:32:32;;;;;;;39.92;13.52;;;;;;;;;;4983982;28;94781;-62
2022/12/21 05:34:59;;;;;;;46.40;15.95;;;;;;;;;;4982518;28;92459;-61
2022/12/21 05:37:26;;;;;;;28.10;11.80;;;;;;;;;;4968617;28;92573;-62
2022/12/21 05:39:53;;;;;;;45.45;14.82;;;;;;;;;;4981605;28;93578;-62
2022/12/21 05:42:20;;;;;;;34.75;12.95;;;;;;;;;;4982617;28;92356;-62
2022/12/21 05:44:46;;;;;;;38.25;14.63;;;;;;;;;;4982521;28;92236;-62
2022/12/21 05:47:12;;;;;;;50.83;15.75;;;;;;;;;;4982107;28;92885;-63
2022/12/21 05:49:39;;;;;;;37.58;14.48;;;;;;;;;;4982576;28;91382;-62
2022/12/21 05:52:05;;;;;;;38.75;15.30;;;;;;;;;;4982178;28;92640;-62
2022/12/21 05:54:32;;;;;;;47.35;14.50;;;;;;;;;;4985145;28;92599;-62
2022/12/21 05:56:58;;;;;;;40.20;14.55;;;;;;;;;;4980865;28;94770;-62
2022/12/21 05:59:24;;;;;;;33.03;14.05;;;;;;;;;;4981940;28;92404;-60
2022/12/21 06:01:51;;;;;;;32.97;14.60;;;;;;;;;;4981255;28;92230;-62
2022/12/21 06:04:17;;;;;;;34.97;15.27;;;;;;;;;;4975615;28;92341;-62
2022/12/21 06:06:45;;;;;;;38.83;15.60;;;;;;;;;;4981637;28;92682;-62
2022/12/21 06:09:11;;;;;;;36.83;16.15;;;;;;;;;;4982109;28;92602;-61
2022/12/21 06:11:38;;;;;;;32.33;13.85;;;;;;;;;;4985791;28;92392;-62
2022/12/21 06:14:04;;;;;;;36.15;15.38;;;;;;;;;;4992654;28;91695;-60
2022/12/21 06:16:32;;;;;;;32.95;14.38;;;;;;;;;;4983397;28;92482;-61
2022/12/21 06:19:00;;;;;;;34.33;14.80;;;;;;;;;;4980430;28;92960;-62
2022/12/21 06:21:27;;;;;;;27.65;11.82;;;;;;;;;;4978695;28;94595;-61
2022/12/21 06:23:53;;;;;;;28.48;12.93;;;;;;;;;;4982034;28;94793;-62
2022/12/21 06:26:20;;;;;;;33.30;15.13;;;;;;;;;;4984472;28;93185;-61
2022/12/21 06:28:47;;;;;;;27.80;12.05;;;;;;;;;;4981180;28;92054;-61
2022/12/21 06:31:13;;;;;;;37.40;16.23;;;;;;;;;;4981907;28;92571;-61
2022/12/21 06:33:40;;;;;;;31.08;14.32;;;;;;;;;;4981576;28;92656;-62
2022/12/21 06:36:07;;;;;;;34.30;13.40;;;;;;;;;;4984865;28;92439;-61
2022/12/21 06:38:34;;;;;;;29.48;12.48;;;;;;;;;;4981698;28;92206;-62
2022/12/21 06:41:02;;;;;;;41.30;16.75;;;;;;;;;;4981468;28;92446;-62
2022/12/21 06:43:30;;;;;;;37.15;15.75;;;;;;;;;;4981680;28;93491;-62
2022/12/21 06:45:57;;;;;;;37.55;15.32;;;;;;;;;;4979891;28;94989;-62
2022/12/21 06:48:25;;;;;;;39.70;16.25;;;;;;;;;;4982190;28;92624;-61
2022/12/21 06:50:55;;;;;;;38.40;16.00;;;;;;;;;;4981263;28;92353;-61
2022/12/21 06:53:22;;;;;;;36.65;15.27;;;;;;;;;;4981905;28;92666;-62
2022/12/21 06:55:48;;;;;;;43.33;15.95;;;;;;;;;;4981370;28;92376;-61
2022/12/21 06:58:15;;;;;;;40.67;16.50;;;;;;;;;;4982153;28;92359;-61
2022/12/21 07:00:42;;;;;;;44.00;17.70;;;;;;;;;;4973245;28;92584;-61
2022/12/21 07:03:09;;;;;;;42.83;18.45;;;;;;;;;;4981732;28;92397;-61
2022/12/21 07:05:34;;;;;;;34.17;14.48;;;;;;;;;;4970904;28;92885;-62
2022/12/21 07:08:00;;;;;;;38.20;15.60;;;;;;;;;;4981520;28;91962;-61
2022/12/21 07:10:27;;;;;;;38.80;15.65;;;;;;;;;;4979781;28;94573;-61
2022/12/21 07:12:53;;;;;;;33.88;15.13;;;;;;;;;;4981269;28;92530;-61
2022/12/21 07:15:19;;;;;;;41.90;16.77;;;;;;;;;;4980776;28;92257;-61
2022/12/21 07:17:46;;;;;;;38.83;16.30;;;;;;;;;;4981388;28;92433;-61
2022/12/21 07:20:12;;;;;;;47.42;19.77;;;;;;;;;;4983611;28;92554;-61
2022/12/21 07:22:39;;;;;;;39.97;17.00;;;;;;;;;;4981168;28;92633;-61
2022/12/21 07:25:06;;;;;;;34.25;14.98;;;;;;;;;;4983256;28;93141;-61
2022/12/21 07:27:32;;;;;;;44.58;18.40;;;;;;;;;;4981693;28;91533;-61
2022/12/21 07:29:59;;;;;;;44.05;16.80;;;;;;;;;;4980921;28;92199;-61
2022/12/21 07:32:25;;;;;;;37.28;16.38;;;;;;;;;;4980875;28;92712;-61
2022/12/21 07:34:52;;;;;;;41.17;16.27;;;;;;;;;;4979282;28;94526;-61
2022/12/21 07:37:18;;;;;;;35.03;15.57;;;;;;;;;;4980608;28;95248;-61
2022/12/21 07:39:44;;;;;;;38.45;17.25;;;;;;;;;;4981097;28;92217;-61
2022/12/21 07:42:11;;;;;;;37.63;15.90;;;;;;;;;;4987562;28;93839;-61
2022/12/21 07:44:52;;;;;;;37.38;16.42;;;;;;;;;;4983079;28;92819;-61
2022/12/21 07:47:28;;;;;;;40.65;17.13;;;;;;;;;;4984557;28;92455;-61
2022/12/21 07:49:55;;;;;;;41.88;17.65;;;;;;;;;;4983932;28;92649;-61
2022/12/21 07:52:21;;;;;;;40.47;17.67;;;;;;;;;;4984722;28;91924;-61
2022/12/21 07:54:48;;;;;;;33.28;15.25;;;;;;;;;;4979722;28;92491;-61
2022/12/21 07:57:16;;;;;;;38.38;17.50;;;;;;;;;;4975727;28;92322;-61
2022/12/21 07:59:42;;;;;;;36.03;14.93;;;;;;;;;;4981571;28;96001;-61
2022/12/21 08:02:08;;;;;;;37.15;16.60;;;;;;;;;;4980715;28;92226;-61
2022/12/21 08:04:35;;;;;;;37.17;16.85;;;;;;;;;;4983136;28;93310;-61
2022/12/21 08:07:01;;;;;;;40.97;17.00;;;;;;;;;;4979658;28;92313;-61
2022/12/21 08:09:28;;;;;;;40.30;18.20;;;;;;;;;;4980978;28;94113;-61
2022/12/21 08:11:55;;;;;;;35.22;15.85;;;;;;;;;;4980254;28;92640;-61
2022/12/21 08:14:21;;;;;;;41.65;18.63;;;;;;;;;;4979758;28;92606;-61
2022/12/21 08:16:48;;;;;;;39.13;17.35;;;;;;;;;;4981975;28;92306;-60
2022/12/21 08:19:14;;;;;;;38.78;17.50;;;;;;;;;;4979071;28;92862;-61
2022/12/21 08:21:41;;;;;;;43.28;19.10;;;;;;;;;;4982985;28;92324;-60
2022/12/21 08:24:07;;;;;;;37.33;18.35;;;;;;;;;;4984860;28;94754;-60
2022/12/21 08:26:33;;;;;;;39.53;17.48;;;;;;;;;;4984153;28;92217;-60
2022/12/21 08:29:00;;;;;;;42.30;20.13;;;;;;;;;;4981561;28;95271;-60
2022/12/21 08:31:27;;;;;;;34.90;15.85;;;;;;;;;;4983212;28;92388;-59
2022/12/21 08:33:53;;;;;;;38.28;17.42;;;;;;;;;;4982807;28;92201;-61
2022/12/21 08:36:21;;;;;;;39.53;18.25;;;;;;;;;;4982612;28;92471;-61
2022/12/21 08:38:47;;;;;;;41.50;17.20;;;;;;;;;;4982723;28;93076;-60
2022/12/21 08:41:34;;;;;;;39.13;17.83;;;;;;;;;;4983066;28;91316;-61
2022/12/21 08:44:01;;;;;;;42.50;18.17;;;;;;;;;;4982897;28;92165;-60
2022/12/21 08:46:27;;;;;;;36.97;17.50;;;;;;;;;;4985730;28;93089;-60
2022/12/21 08:48:54;;;;;;;37.85;18.00;;;;;;;;;;4981446;28;94599;-61
2022/12/21 08:51:20;;;;;;;37.75;18.80;;;;;;;;;;4977793;28;92687;-60
2022/12/21 08:53:46;;;;;;;40.22;19.40;;;;;;;;;;4981683;28;92379;-61
2022/12/21 08:56:17;;;;;;;32.83;14.80;;;;;;;;;;4981699;28;92579;-61
2022/12/21 08:58:44;;;;;;;34.35;16.85;;;;;;;;;;4964628;28;92663;-60
2022/12/21 09:01:10;;;;;;;37.20;16.45;;;;;;;;;;4965043;28;92443;-60
2022/12/21 09:03:37;;;;;;;39.92;18.17;;;;;;;;;;4981323;28;93214;-61
2022/12/21 09:06:03;;;;;;;34.58;15.85;;;;;;;;;;4982171;28;91767;-61
2022/12/21 09:08:34;;;;;;;37.65;17.02;;;;;;;;;;4985117;28;92120;-60
2022/12/21 09:11:05;;;;;;;35.35;16.17;;;;;;;;;;4981580;28;92618;-61
2022/12/21 09:13:32;;;;;;;33.50;17.02;;;;;;;;;;4971721;28;94569;-62
2022/12/21 09:15:59;;;;;;;37.33;18.15;;;;;;;;;;4969582;28;94773;-62
2022/12/21 09:18:25;;;;;;;38.63;20.08;;;;;;;;;;4980699;28;92597;-62
2022/12/21 09:20:53;;;;;;;39.00;18.52;;;;;;;;;;4982240;28;92474;-62
2022/12/21 09:23:20;;;;;;;28.98;14.40;;;;;;;;;;4982202;28;92483;-63
2022/12/21 09:25:47;;;;;;;32.00;16.23;;;;;;;;;;4988106;28;92523;-63
2022/12/21 09:28:13;;;;;;;32.35;14.93;;;;;;;;;;4982199;28;92023;-62
2022/12/21 09:30:40;;;;;;;32.20;15.02;;;;;;;;;;4985791;28;92949;-63
2022/12/21 09:33:06;;;;;;;29.00;13.10;;;;;;;;;;4981484;28;92517;-62
2022/12/21 09:35:36;;;;;;;28.92;13.52;;;;;;;;;;4980792;28;94566;-62
2022/12/21 09:38:03;;;;;;;30.85;15.05;;;;;;;;;;4980480;28;95912;-62
2022/12/21 09:40:30;;;;;;;28.23;14.32;;;;;;;;;;4982391;28;92533;-62
2022/12/21 09:42:56;;;;;;;29.75;15.38;;;;;;;;;;4982139;28;92364;-62
2022/12/21 09:45:46;;;;;;;25.25;13.32;;;;;;;;;;4981312;28;93732;-62
2022/12/21 09:48:15;;;;;;;26.05;13.77;;;;;;;;;;4981767;28;92436;-59
2022/12/21 09:50:44;;;;;;;29.83;14.82;;;;;;;;;;4981948;28;92400;-62
2022/12/21 09:53:25;;;;;;;28.05;14.25;;;;;;;;;;4984420;28;92639;-62
2022/12/21 09:55:56;;;;;;;25.75;13.77;;;;;;;;;;4982676;28;92418;-62
2022/12/21 09:58:25;;;;;;;27.90;13.10;;;;;;;;;;4981635;28;92678;-62
2022/12/21 10:00:57;;;;;;;26.42;12.73;;;;;;;;;;4981536;28;92741;-61
2022/12/21 10:03:42;;;;;;;30.38;13.63;;;;;;;;;;4971639;28;94754;-63
2022/12/21 10:06:30;;;;;;;30.23;16.52;;;;;;;;;;4981304;28;94202;-63
2022/12/21 10:08:59;;;;;;;31.00;15.60;;;;;;;;;;4981651;28;92284;-63
2022/12/21 10:11:44;;;;;;;26.73;14.30;;;;;;;;;;4981274;28;92620;-62
2022/12/21 10:14:49;;;;;;;26.80;14.07;;;;;;;;;;4981699;28;92646;-62
2022/12/21 10:17:25;;;;;;;29.35;14.63;;;;;;;;;;4962259;28;92356;-62
2022/12/21 10:20:26;;;;;;;16.15;6.80;;;;;;;;;;4946973;28;92686;-60
2022/12/21 10:22:57;;;;;;;15.85;6.82;;;;;;;;;;4975123;28;91451;-60
2022/12/21 10:25:24;;;;;;;12.93;6.55;;;;;;;;;;4989905;28;92126;-59
2022/12/21 10:27:58;;;;;;;15.40;6.43;;;;;;;;;;4987041;28;93612;-59
2022/12/21 10:30:24;;;;;;;12.10;6.20;;;;;;;;;;4980647;28;94603;-60
2022/12/21 10:32:51;;;;;;;12.73;5.60;;;;;;;;;;4971917;28;94765;-58
2022/12/21 10:35:19;;;;;;;15.32;5.90;;;;;;;;;;4981209;28;93268;-60
2022/12/21 10:37:47;;;;;;;13.25;6.45;;;;;;;;;;4984667;28;92276;-62
2022/12/21 10:40:14;;;;;;;10.35;5.75;;;;;;;;;;4981105;28;92912;-62
2022/12/21 10:42:42;;;;;;;11.00;5.78;;;;;;;;;;4981689;28;92077;-61
2022/12/21 10:45:15;;;;;;;10.70;5.53;;;;;;;;;;4980772;28;93367;-60
2022/12/21 10:47:51;;;;;;;10.02;5.30;;;;;;;;;;4982142;28;91936;-61
2022/12/21 10:50:21;;;;;;;11.40;5.03;;;;;;;;;;4981476;28;92799;-60
2022/12/21 10:52:51;;;;;;;11.38;5.32;;;;;;;;;;4981194;28;93810;-60
2022/12/21 10:55:18;;;;;;;11.30;5.38;;;;;;;;;;4979918;28;95150;-61
2022/12/21 10:57:45;;;;;;;10.43;5.55;;;;;;;;;;4981274;28;92154;-60
2022/12/21 11:00:12;;;;;;;;;;;;;;;;;;4984887;28;92344;-62
2022/12/21 11:02:42;;;;;;;12.45;5.80;;;;;;;;;;4983108;28;92427;-62
2022/12/21 11:05:30;;;;;;;11.63;5.20;;;;;;;;;;4979352;28;92266;-62
2022/12/21 11:08:14;;;;;;;14.07;5.60;;;;;;;;;;4980753;28;93681;-62
2022/12/21 11:10:42;;;;;;;12.13;5.60;;;;;;;;;;4980812;28;93838;-61
2022/12/21 11:13:19;;;;;;;11.90;5.10;;;;;;;;;;4978724;28;92290;-61
2022/12/21 11:15:53;;;;;;;10.00;5.38;;;;;;;;;;4980606;28;92869;-61
2022/12/21 11:18:35;;;;;;;9.55;4.90;;;;;;;;;;4980733;28;92554;-61
2022/12/21 11:21:03;;;;;;;11.00;5.03;;;;;;;;;;4979874;28;94680;-61
2022/12/21 11:23:30;;;;;;;11.35;5.03;;;;;;;;;;4983717;28;93881;-59
2022/12/21 11:25:57;;;;;;;10.55;4.55;;;;;;;;;;4979844;28;93182;-61
2022/12/21 11:28:23;;;;;;;10.68;4.63;;;;;;;;;;4980963;28;92630;-61
2022/12/21 11:31:04;;;;;;;9.80;4.57;;;;;;;;;;4980468;28;92138;-61
2022/12/21 11:33:31;;;;;;;10.15;4.63;;;;;;;;;;4977112;28;92456;-61
2022/12/21 11:36:05;;;;;;;9.20;4.70;;;;;;;;;;4980250;28;92104;-61
2022/12/21 11:38:35;;;;;;;10.52;4.80;;;;;;;;;;4981098;28;91538;-61
2022/12/21 11:41:07;;;;;;;12.45;4.88;;;;;;;;;;4979167;28;92379;-61
2022/12/21 11:43:42;;;;;;;11.20;5.00;;;;;;;;;;4980388;28;93213;-61
2022/12/21 11:46:29;;;;;;;12.68;4.72;;;;;;;;;;4981961;28;94483;-61
2022/12/21 11:49:33;;;;;;;11.02;4.95;;;;;;;;;;4979516;28;93809;-61
2022/12/21 11:52:18;;;;;;;10.50;5.43;;;;;;;;;;4978391;28;92549;-60
2022/12/21 11:55:03;;;;;;;11.48;4.70;;;;;;;;;;4981312;28;92464;-61
2022/12/21 11:57:48;;;;;;;9.90;4.57;;;;;;;;;;4979790;28;93147;-61
2022/12/21 12:00:21;;;;;;;9.93;4.82;;;;;;;;;;4962881;28;92421;-62
2022/12/21 12:03:20;;;;;;;9.85;5.30;;;;;;;;;;4979466;28;92719;-61
2022/12/21 12:05:47;;;;;;;;;;;;;;;;;;4977081;28;93664;-61
2022/12/21 12:08:16;;;;;;;10.27;4.50;;;;;;;;;;4975767;28;116042;-61
2022/12/21 12:10:45;;;;;;;9.18;4.50;;;;;;;;;;4983490;28;92164;-61
2022/12/21 12:13:30;;;;;;;8.90;4.80;;;;;;;;;;4975655;28;95577;-61
2022/12/21 12:16:03;;;;;;;9.77;4.70;;;;;;;;;;4975161;28;94604;-60
2022/12/21 12:18:56;;;;;;;10.65;5.53;;;;;;;;;;4971844;28;93039;-61
2022/12/21 12:21:29;;;;;;;9.35;4.40;;;;;;;;;;4971585;28;92510;-62
2022/12/21 12:24:04;;;;;;;8.95;4.60;;;;;;;;;;4980762;28;92339;-61
2022/12/21 12:26:40;;;;;;;10.02;4.43;;;;;;;;;;4985146;28;93799;-61
2022/12/21 12:29:12;;;;;;;9.77;4.65;;;;;;;;;;4983870;28;92367;-61
2022/12/21 12:31:42;;;;;;;8.77;4.40;;;;;;;;;;4977361;28;92309;-61
2022/12/21 12:34:14;;;;;;;9.20;4.68;;;;;;;;;;4986667;28;92636;-62
2022/12/21 12:36:53;;;;;;;9.02;4.68;;;;;;;;;;4983152;28;92433;-61
2022/12/21 12:39:40;;;;;;;11.07;4.60;;;;;;;;;;4981535;28;96117;-61
2022/12/21 12:42:07;;;;;;;9.32;4.70;;;;;;;;;;4978047;28;92758;-60
2022/12/21 12:44:52;;;;;;;8.30;4.30;;;;;;;;;;4983472;28;92531;-60
2022/12/21 12:47:45;;;;;;;9.40;4.63;;;;;;;;;;4983353;28;92473;-60
2022/12/21 12:50:12;;;;;;;9.65;4.57;;;;;;;;;;4983185;28;92046;-59
2022/12/21 12:52:39;;;;;;;9.68;4.63;;;;;;;;;;4982947;28;92506;-60
2022/12/21 12:55:05;;;;;;;8.75;4.57;;;;;;;;;;4985922;28;92877;-60
2022/12/21 12:57:52;;;;;;;9.27;4.57;;;;;;;;;;4983127;28;92821;-59
2022/12/21 13:00:18;;;;;;;9.82;4.50;;;;;;;;;;4976913;28;95513;-60
2022/12/21 13:03:02;;;;;;;8.43;4.60;;;;;;;;;;4982587;28;92057;-60
2022/12/21 13:05:51;;;;;;;9.45;4.90;;;;;;;;;;4980533;28;94670;-62
2022/12/21 13:08:38;;;;;;;7.63;4.03;;;;;;;;;;4983166;28;92273;-59
2022/12/21 13:11:04;;;;;;;11.50;4.90;;;;;;;;;;4970042;28;92479;-62
2022/12/21 13:13:38;;;;;;;9.82;4.60;;;;;;;;;;4982710;28;93412;-61
2022/12/21 13:16:07;;;;;;;10.45;4.78;;;;;;;;;;4977968;28;92791;-61
2022/12/21 13:18:55;;;;;;;11.20;5.30;;;;;;;;;;4985604;28;92308;-64
2022/12/21 13:21:23;;;;;;;10.55;4.38;;;;;;;;;;4982162;28;92880;-61
2022/12/21 13:23:49;;;;;;;;;;;;;;;;;;4982877;28;91545;-61
2022/12/21 13:26:19;;;;;;;8.25;4.05;;;;;;;;;;4991942;28;117774;-62
2022/12/21 13:28:57;;;;;;;11.63;4.57;;;;;;;;;;4981712;28;92284;-62
2022/12/21 13:31:29;;;;;;;10.93;4.75;;;;;;;;;;4980234;28;94734;-62
2022/12/21 13:34:00;;;;;;;9.60;4.35;;;;;;;;;;4982424;28;94924;-62
2022/12/21 13:36:29;;;;;;;10.18;4.50;;;;;;;;;;4981852;28;92544;-61
2022/12/21 13:39:03;;;;;;;8.15;4.70;;;;;;;;;;4978273;28;92506;-62
2022/12/21 13:41:33;;;;;;;9.57;4.68;;;;;;;;;;4986118;28;92289;-61
2022/12/21 13:44:18;;;;;;;9.02;4.18;;;;;;;;;;4982748;28;92241;-64
2022/12/21 13:46:48;;;;;;;8.05;4.15;;;;;;;;;;4982926;28;93158;-64
2022/12/21 13:49:23;;;;;;;9.20;4.32;;;;;;;;;;4982857;28;92409;-62
2022/12/21 13:51:54;;;;;;;8.10;4.30;;;;;;;;;;4982575;28;92259;-62
2022/12/21 13:54:20;;;;;;;9.25;4.35;;;;;;;;;;4982953;28;92392;-61
2022/12/21 13:57:06;;;;;;;8.60;4.10;;;;;;;;;;4980776;28;95288;-64
2022/12/21 13:59:42;;;;;;;7.75;3.95;;;;;;;;;;4982964;28;92393;-63
2022/12/21 14:02:26;;;;;;;8.75;4.20;;;;;;;;;;4982610;28;92368;-63
2022/12/21 14:05:03;;;;;;;8.73;4.25;;;;;;;;;;4984661;28;93936;-63
2022/12/21 14:07:48;;;;;;;9.18;4.75;;;;;;;;;;4982151;28;93493;-64
2022/12/21 14:10:18;;;;;;;9.15;4.03;;;;;;;;;;4969331;28;92711;-63
2022/12/21 14:13:19;;;;;;;9.18;4.05;;;;;;;;;;4970565;28;92855;-61
2022/12/21 14:15:56;;;;;;;8.07;3.92;;;;;;;;;;4979593;28;92240;-61
2022/12/21 14:18:27;;;;;;;8.10;4.03;;;;;;;;;;4982028;28;92716;-66
2022/12/21 14:20:58;;;;;;;8.70;3.92;;;;;;;;;;4982129;28;91990;-62
2022/12/21 14:23:29;;;;;;;8.35;4.18;;;;;;;;;;4980760;28;94366;-61
2022/12/21 14:25:56;;;;;;;8.13;4.10;;;;;;;;;;4990187;28;93734;-63
2022/12/21 14:28:24;;;;;;;7.53;3.72;;;;;;;;;;4985165;28;92356;-62
2022/12/21 14:30:51;;;;;;;8.35;4.10;;;;;;;;;;4981980;28;92695;-62
2022/12/21 14:33:20;;;;;;;8.68;3.90;;;;;;;;;;4981976;28;92001;-64
2022/12/21 14:36:06;;;;;;;7.80;3.97;;;;;;;;;;4982141;28;93288;-63
2022/12/21 14:38:32;;;;;;;9.05;3.88;;;;;;;;;;4981214;28;92894;-63
2022/12/21 14:41:08;;;;;;;9.32;3.72;;;;;;;;;;4982474;28;91559;-61
2022/12/21 14:43:52;;;;;;;8.27;4.03;;;;;;;;;;4981859;28;92837;-63
2022/12/21 14:46:24;;;;;;;7.85;4.25;;;;;;;;;;4972892;28;92525;-63
2022/12/21 14:48:52;;;;;;;10.55;4.72;;;;;;;;;;4969763;28;94770;-63
2022/12/21 14:51:51;;;;;;;8.57;4.28;;;;;;;;;;4981359;28;94818;-63
2022/12/21 14:54:43;;;;;;;8.57;4.18;;;;;;;;;;4970098;28;92299;-63
2022/12/21 14:57:10;;;;;;;9.25;4.53;;;;;;;;;;4980484;28;92996;-63
2022/12/21 14:59:55;;;;;;;9.02;4.55;;;;;;;;;;4980452;28;93844;-63